Zirconia, North Carolina
Current Conditions -  °F | °C
As of 3:54 PM on Friday 31 Oct 2014 (Local Time) from KAVL Reporting Station
Light Rain Light Rain  
Wind Chill: 51°   Ceiling: 5500
Heat Index: 51°   Visibility: 10mi
Dew Point: 41°   Wind: 10mph
Humidity: 68%   Direction: 340°NNW
Pressure: 29.83"   Gusts: NA
Location:  35.24°N, 82.41°W
Report Text: KAVL 311954Z 34009KT 10SM -RA SCT041 BKN055 OVC070 11/05 A2983 RMK AO2 SLP098 P0000 T01060050
Loading
Personal Weather Stations






























Interactive Weather Map
Tropical Storm Tracking
New forecast layout! Learn more

10-Day Weather Forecast

Advertisements
Track Severe Weather on mobile